createdAt,value
2022-11-28T00:00:27.885Z,101166.64
2022-11-28T00:01:29.670Z,101166.23
2022-11-28T00:02:29.543Z,101166.28
2022-11-28T00:03:29.767Z,101166.37
2022-11-28T00:04:30.454Z,101166.45
2022-11-28T00:05:30.788Z,101166.05
2022-11-28T00:06:31.218Z,101165.87
2022-11-28T00:07:31.492Z,101166.27
2022-11-28T00:08:31.723Z,101166.34
2022-11-28T00:08:40.369Z,101163.06
2022-11-28T00:09:40.909Z,101162.47
2022-11-28T00:10:41.773Z,101162.64
2022-11-28T00:11:42.226Z,101162.89
2022-11-28T00:12:42.613Z,101162.48
2022-11-28T00:13:44.059Z,101162.14
2022-11-28T00:14:43.483Z,101162.40
2022-11-28T00:15:43.868Z,101162.14
2022-11-28T00:16:44.600Z,101162.14
2022-11-28T00:17:45.027Z,101161.81
2022-11-28T00:18:45.199Z,101161.47
2022-11-28T00:19:47.125Z,101160.72
2022-11-28T00:20:46.687Z,101160.80
2022-11-28T00:21:47.004Z,101160.47
2022-11-28T00:22:47.511Z,101160.30
2022-11-28T00:23:48.640Z,101160.39
2022-11-28T00:24:47.930Z,101159.72
2022-11-28T00:25:49.794Z,101159.37
2022-11-28T00:26:49.159Z,101158.87
2022-11-28T00:27:49.438Z,101158.59
2022-11-28T00:28:50.348Z,101157.51
2022-11-28T00:29:50.852Z,101156.17
2022-11-28T00:30:51.183Z,101155.25
2022-11-28T00:31:51.584Z,101154.41
2022-11-28T00:32:51.776Z,101153.23
2022-11-28T00:33:52.648Z,101152.40
2022-11-28T00:34:53.812Z,101151.39
2022-11-28T00:35:02.525Z,101150.80
2022-11-28T00:36:03.492Z,101149.36
2022-11-28T00:37:03.986Z,101148.28
2022-11-28T00:38:04.279Z,101147.83
2022-11-28T00:39:04.661Z,101146.98
2022-11-28T00:40:06.346Z,101146.15
2022-11-28T00:41:06.538Z,101145.91
2022-11-28T00:42:07.032Z,101145.48
2022-11-28T00:43:06.923Z,101144.65
2022-11-28T00:44:07.662Z,101144.14
2022-11-28T00:45:08.003Z,101143.81
2022-11-28T00:46:09.606Z,101143.86
2022-11-28T00:47:08.912Z,101143.36
2022-11-28T00:48:10.179Z,101143.19
2022-11-28T00:49:09.210Z,101142.64
2022-11-28T00:50:09.546Z,101141.96
2022-11-28T00:51:10.022Z,101141.69
2022-11-28T00:52:10.469Z,101141.02
2022-11-28T00:53:11.316Z,101140.61
2022-11-28T00:54:12.029Z,101139.77
2022-11-28T00:55:12.690Z,101138.81
2022-11-28T00:56:13.228Z,101138.06
2022-11-28T00:57:13.809Z,101137.31
2022-11-28T00:58:15.344Z,101136.73
2022-11-28T00:59:14.844Z,101135.38
2022-11-28T01:00:15.478Z,101134.60
2022-11-28T01:01:17.408Z,101133.59
2022-11-28T01:01:26.047Z,101122.72
2022-11-28T01:02:26.507Z,101121.63
2022-11-28T01:03:26.934Z,101121.30
2022-11-28T01:04:27.083Z,101121.13
2022-11-28T01:05:27.471Z,101120.79
2022-11-28T01:06:29.241Z,101120.63
2022-11-28T01:07:29.830Z,101120.38
2022-11-28T01:08:29.115Z,101120.30
2022-11-28T01:09:29.561Z,101120.52
2022-11-28T01:10:29.582Z,101120.86
2022-11-28T01:11:30.035Z,101121.50
2022-11-28T01:12:31.381Z,101121.84
2022-11-28T01:13:31.649Z,101121.73
2022-11-28T01:14:32.005Z,101121.65
2022-11-28T01:15:31.363Z,101121.14
2022-11-28T01:16:32.916Z,101121.81
2022-11-28T01:17:32.026Z,101121.73
2022-11-28T01:18:33.742Z,101120.75
2022-11-28T01:19:34.018Z,101121.25
2022-11-28T01:20:34.383Z,101120.83
2022-11-28T01:21:34.714Z,101120.27
2022-11-28T01:22:35.641Z,101120.19
2022-11-28T01:22:44.339Z,101122.09
2022-11-28T01:23:45.447Z,101120.66
2022-11-28T01:24:45.807Z,101119.99
2022-11-28T01:25:45.577Z,101119.27
2022-11-28T01:26:47.063Z,101118.67
2022-11-28T01:27:46.330Z,101118.09
2022-11-28T01:28:47.617Z,101116.83
2022-11-28T01:29:48.137Z,101115.82
2022-11-28T01:30:47.744Z,101114.26
2022-11-28T01:31:48.184Z,101113.16
2022-11-28T01:32:48.391Z,101111.06
2022-11-28T01:33:49.726Z,101108.80
2022-11-28T01:34:49.478Z,101107.45
2022-11-28T01:35:49.995Z,101105.39
2022-11-28T01:36:50.605Z,101103.21
2022-11-28T01:37:51.215Z,101101.34
2022-11-28T01:38:52.523Z,101099.50
2022-11-28T01:39:52.120Z,101098.13
2022-11-28T01:40:54.006Z,101096.96
2022-11-28T01:41:53.674Z,101095.53
2022-11-28T01:42:55.522Z,101094.14
2022-11-28T01:43:55.880Z,101092.70
2022-11-28T01:44:04.593Z,101073.78
2022-11-28T01:45:05.743Z,101073.45
2022-11-28T01:46:04.994Z,101072.69
2022-11-28T01:47:05.615Z,101072.10
2022-11-28T01:48:05.986Z,101072.13
2022-11-28T01:49:07.409Z,101071.39
2022-11-28T01:50:07.677Z,101070.55
2022-11-28T01:51:07.694Z,101070.08
2022-11-28T01:52:07.229Z,101069.66
2022-11-28T01:53:09.139Z,101068.25
2022-11-28T01:54:09.886Z,101067.58
2022-11-28T01:55:10.474Z,101066.34
2022-11-28T01:56:11.144Z,101065.47
2022-11-28T01:57:11.524Z,101065.05
2022-11-28T01:58:10.781Z,101064.98
2022-11-28T01:59:11.046Z,101064.98
2022-11-28T02:00:12.451Z,101064.51
2022-11-28T02:01:11.913Z,101064.92
2022-11-28T02:02:12.543Z,101064.61
2022-11-28T02:03:12.687Z,101064.61
2022-11-28T02:04:13.760Z,101064.71
2022-11-28T02:05:13.746Z,101064.65
2022-11-28T02:05:22.880Z,101068.23
2022-11-28T02:06:24.525Z,101066.80
2022-11-28T02:07:24.833Z,101066.72
2022-11-28T02:08:24.071Z,101066.97
2022-11-28T02:09:25.857Z,101067.03
2022-11-28T02:10:26.194Z,101067.20
2022-11-28T02:11:25.729Z,101067.95
2022-11-28T02:12:26.044Z,101067.63
2022-11-28T02:13:26.601Z,101067.34
2022-11-28T02:14:27.943Z,101066.63
2022-11-28T02:15:28.458Z,101066.20
2022-11-28T02:16:28.116Z,101065.86
2022-11-28T02:17:28.596Z,101065.46
2022-11-28T02:18:28.924Z,101064.56
2022-11-28T02:19:30.503Z,101063.50
2022-11-28T02:20:30.922Z,101062.81
2022-11-28T02:21:31.290Z,101062.67
2022-11-28T02:22:31.394Z,101062.67
2022-11-28T02:23:31.862Z,101062.44
2022-11-28T02:24:31.000Z,101062.64
2022-11-28T02:25:32.495Z,101062.55
2022-11-28T02:26:33.317Z,101061.73
2022-11-28T02:26:41.939Z,101047.97
2022-11-28T02:27:43.624Z,101047.13
2022-11-28T02:28:44.140Z,101046.80
2022-11-28T02:29:44.956Z,101047.02
2022-11-28T02:30:44.380Z,101046.52
2022-11-28T02:31:44.934Z,101046.52
2022-11-28T02:32:45.222Z,101045.59
2022-11-28T02:33:46.893Z,101045.27
2022-11-28T02:34:47.283Z,101044.84
2022-11-28T02:35:46.224Z,101044.34
2022-11-28T02:36:47.541Z,101043.33
2022-11-28T02:37:47.076Z,101042.16
2022-11-28T02:38:48.117Z,101041.49
2022-11-28T02:39:48.970Z,101040.66
2022-11-28T02:40:49.220Z,101039.84
2022-11-28T02:41:49.420Z,101039.17
2022-11-28T02:42:49.891Z,101038.58
2022-11-28T02:43:49.942Z,101037.83
2022-11-28T02:44:50.063Z,101036.67
2022-11-28T02:45:49.466Z,101035.41
2022-11-28T02:46:50.268Z,101033.83
2022-11-28T02:47:50.620Z,101032.93
2022-11-28T02:47:59.260Z,101008.83
2022-11-28T02:49:00.554Z,101008.66
2022-11-28T02:50:00.719Z,101008.16
2022-11-28T02:50:59.950Z,101008.33
2022-11-28T02:51:59.963Z,101008.08
2022-11-28T02:53:01.475Z,101007.46
2022-11-28T02:54:02.261Z,101007.38
2022-11-28T02:55:01.857Z,101007.30
2022-11-28T02:56:02.125Z,101007.11
2022-11-28T02:57:02.632Z,101006.61
2022-11-28T02:58:04.015Z,101005.92
2022-11-28T02:59:03.542Z,101005.23
2022-11-28T03:00:05.310Z,101004.09
2022-11-28T03:01:04.819Z,101003.06
2022-11-28T03:02:05.065Z,101002.30
2022-11-28T03:03:05.389Z,101001.18
2022-11-28T03:04:06.745Z,101000.91
2022-11-28T03:05:07.505Z,101000.11
2022-11-28T03:06:07.603Z,100999.50
2022-11-28T03:07:07.502Z,100998.56
2022-11-28T03:08:07.683Z,100997.54
2022-11-28T03:09:09.051Z,100996.23
2022-11-28T03:10:09.892Z,100995.28
2022-11-28T03:10:18.524Z,100975.27
2022-11-28T03:11:20.355Z,100975.11
2022-11-28T03:12:20.637Z,100974.27
2022-11-28T03:13:20.520Z,100973.85
2022-11-28T03:14:21.795Z,100973.52
2022-11-28T03:15:22.685Z,100972.76
2022-11-28T03:16:23.571Z,100972.50
2022-11-28T03:17:22.954Z,100972.28
2022-11-28T03:18:24.643Z,100971.36
2022-11-28T03:19:24.752Z,100970.18
2022-11-28T03:20:25.488Z,100969.59
2022-11-28T03:21:26.154Z,100968.34
2022-11-28T03:22:26.994Z,100967.28
2022-11-28T03:23:26.475Z,100966.52
2022-11-28T03:24:27.921Z,100965.27
2022-11-28T03:25:27.369Z,100964.37
2022-11-28T03:26:27.676Z,100963.11
2022-11-28T03:27:29.413Z,100962.19
2022-11-28T03:28:29.779Z,100960.62
2022-11-28T03:29:29.698Z,100959.22
2022-11-28T03:29:38.334Z,100944.60
2022-11-28T03:30:39.603Z,100944.02
2022-11-28T03:31:40.306Z,100943.34
2022-11-28T03:32:39.068Z,100942.67
2022-11-28T03:33:40.667Z,100941.95
2022-11-28T03:34:40.273Z,100941.45
2022-11-28T03:35:40.348Z,100940.50
2022-11-28T03:36:40.495Z,100939.41
2022-11-28T03:37:40.552Z,100938.23
2022-11-28T03:38:42.243Z,100937.14
2022-11-28T03:39:42.737Z,100936.64
2022-11-28T03:40:43.726Z,100935.91
2022-11-28T03:41:44.026Z,100935.50
2022-11-28T03:42:44.635Z,100934.83
2022-11-28T03:43:45.424Z,100934.07
2022-11-28T03:44:46.085Z,100933.14
2022-11-28T03:45:45.725Z,100932.81
2022-11-28T03:46:47.892Z,100932.64
2022-11-28T03:47:47.572Z,100932.25
2022-11-28T03:48:48.727Z,100931.80
2022-11-28T03:48:57.369Z,100936.38
2022-11-28T03:49:58.752Z,100935.53
2022-11-28T03:50:58.857Z,100935.12
2022-11-28T03:51:58.520Z,100935.03
2022-11-28T03:53:00.139Z,100934.59
2022-11-28T03:53:59.656Z,100934.48
2022-11-28T03:55:01.330Z,100934.56
2022-11-28T03:56:01.756Z,100934.56
2022-11-28T03:57:00.872Z,100935.07
2022-11-28T03:58:02.341Z,100936.44
2022-11-28T03:59:02.776Z,100937.60
2022-11-28T04:00:03.276Z,100938.55
2022-11-28T04:01:04.356Z,100939.58
2022-11-28T04:02:03.892Z,100940.85
2022-11-28T04:03:04.523Z,100942.16
2022-11-28T04:04:05.133Z,100942.77
2022-11-28T04:05:05.750Z,100943.39
2022-11-28T04:06:07.048Z,100943.19
2022-11-28T04:07:07.784Z,100943.54
2022-11-28T04:08:07.425Z,100943.92
2022-11-28T04:09:13.011Z,100944.53
2022-11-28T04:10:08.193Z,100944.83
2022-11-28T04:11:09.582Z,100944.94
2022-11-28T04:11:18.699Z,100946.70
2022-11-28T04:12:19.957Z,100945.97
2022-11-28T04:13:20.554Z,100946.47
2022-11-28T04:14:21.323Z,100947.48
2022-11-28T04:15:21.997Z,100947.22
2022-11-28T04:16:21.398Z,100947.97
2022-11-28T04:17:21.917Z,100948.33
2022-11-28T04:18:22.628Z,100949.47
2022-11-28T04:19:22.946Z,100949.91
2022-11-28T04:20:24.423Z,100950.28
2022-11-28T04:21:24.824Z,100950.72
2022-11-28T04:22:24.083Z,100951.09
2022-11-28T04:23:25.696Z,100951.36
2022-11-28T04:24:26.207Z,100952.58
2022-11-28T04:25:26.657Z,100953.04
2022-11-28T04:26:26.610Z,100953.67
2022-11-28T04:27:27.940Z,100953.62
2022-11-28T04:28:28.708Z,100953.30
2022-11-28T04:29:29.157Z,100953.60
2022-11-28T04:30:28.124Z,100953.45
2022-11-28T04:30:38.303Z,100964.75
2022-11-28T04:31:40.398Z,100963.83
2022-11-28T04:32:39.906Z,100963.77
2022-11-28T04:33:40.354Z,100964.11
2022-11-28T04:34:41.934Z,100964.69
2022-11-28T04:35:41.118Z,100965.80
2022-11-28T04:36:42.668Z,100966.91
2022-11-28T04:37:43.008Z,100968.58
2022-11-28T04:38:43.814Z,100969.60
2022-11-28T04:39:44.295Z,100971.10
2022-11-28T04:40:45.189Z,100972.05
2022-11-28T04:41:44.611Z,100972.70
2022-11-28T04:42:51.332Z,100973.48
2022-11-28T04:43:46.085Z,100974.17
2022-11-28T04:44:47.333Z,100974.45
2022-11-28T04:45:48.402Z,100975.19
2022-11-28T04:46:47.731Z,100975.97
2022-11-28T04:47:49.240Z,100976.26
2022-11-28T04:48:48.701Z,100976.86
2022-11-28T04:49:50.614Z,100976.73
2022-11-28T04:50:51.032Z,100977.34
2022-11-28T04:51:52.648Z,100977.59
2022-11-28T04:52:01.253Z,100995.12
2022-11-28T04:53:01.555Z,100994.20
2022-11-28T04:54:02.218Z,100994.03
2022-11-28T04:55:03.433Z,100993.61
2022-11-28T04:56:03.767Z,100993.77
2022-11-28T04:57:02.743Z,100993.05
2022-11-28T04:58:04.258Z,100993.05
2022-11-28T04:59:04.269Z,100993.22
2022-11-28T05:00:04.640Z,100993.55
2022-11-28T05:01:05.007Z,100993.95
2022-11-28T05:02:04.476Z,100994.13
2022-11-28T05:03:04.853Z,100994.80
2022-11-28T05:04:05.117Z,100995.47
2022-11-28T05:05:06.963Z,100996.14
2022-11-28T05:06:07.522Z,100996.48
2022-11-28T05:07:08.089Z,100997.56
2022-11-28T05:08:07.796Z,100997.62
2022-11-28T05:09:08.993Z,100998.12
2022-11-28T05:10:08.709Z,100998.57
2022-11-28T05:11:10.301Z,100998.98
2022-11-28T05:12:11.079Z,100999.81
2022-11-28T05:13:11.515Z,101000.66
2022-11-28T05:14:10.890Z,101002.08
2022-11-28T05:14:19.483Z,101025.53
2022-11-28T05:15:21.088Z,101025.45
2022-11-28T05:16:21.799Z,101025.11
2022-11-28T05:17:21.235Z,101024.86
2022-11-28T05:18:22.617Z,101024.25
2022-11-28T05:19:22.006Z,101023.50
2022-11-28T05:20:23.394Z,101022.83
2022-11-28T05:21:24.332Z,101022.08
2022-11-28T05:22:23.581Z,101021.25
2022-11-28T05:23:25.492Z,101020.58
2022-11-28T05:24:31.913Z,101019.74
2022-11-28T05:25:25.149Z,101019.66
2022-11-28T05:26:26.462Z,101019.38
2022-11-28T05:27:25.980Z,101019.39
2022-11-28T05:28:26.300Z,101019.20
2022-11-28T05:29:26.653Z,101019.43
2022-11-28T05:30:28.181Z,101019.11
2022-11-28T05:31:27.356Z,101018.75
2022-11-28T05:32:27.998Z,101018.16
2022-11-28T05:33:28.586Z,101017.08
2022-11-28T05:34:29.259Z,101016.80
2022-11-28T05:35:30.735Z,101016.31
2022-11-28T05:35:39.351Z,101000.67
2022-11-28T05:36:40.249Z,101000.25
2022-11-28T05:37:41.522Z,101000.01
2022-11-28T05:38:40.718Z,100999.06
2022-11-28T05:39:42.825Z,100998.40
2022-11-28T05:40:42.332Z,100997.14
2022-11-28T05:41:42.481Z,100996.28
2022-11-28T05:42:43.887Z,100996.09
2022-11-28T05:43:44.155Z,100995.01
2022-11-28T05:44:44.227Z,100994.34
2022-11-28T05:45:44.854Z,100993.82
2022-11-28T05:46:44.005Z,100992.73
2022-11-28T05:47:45.412Z,100992.33
2022-11-28T05:48:45.060Z,100991.55
2022-11-28T05:49:45.360Z,100990.80
2022-11-28T05:50:45.909Z,100990.21
2022-11-28T05:51:47.458Z,100989.63
2022-11-28T05:52:47.607Z,100989.02
2022-11-28T05:53:48.181Z,100988.52
2022-11-28T05:54:48.133Z,100987.91
2022-11-28T05:55:49.465Z,100986.56
2022-11-28T05:56:49.514Z,100985.20
2022-11-28T05:57:49.405Z,100984.27
2022-11-28T05:57:58.756Z,100974.52
2022-11-28T05:59:00.266Z,100974.27
2022-11-28T06:00:00.579Z,100973.95
2022-11-28T06:01:00.510Z,100973.45
2022-11-28T06:02:02.312Z,100973.38
2022-11-28T06:03:01.968Z,100973.14
2022-11-28T06:04:02.524Z,100973.59
2022-11-28T06:05:21.084Z,100973.44
2022-11-28T06:06:03.492Z,100974.21
2022-11-28T06:07:05.027Z,100974.15
2022-11-28T06:08:05.483Z,100974.16
2022-11-28T06:09:04.906Z,100974.19
2022-11-28T06:10:06.347Z,100974.28
2022-11-28T06:11:06.909Z,100974.38
2022-11-28T06:12:07.732Z,100974.59
2022-11-28T06:13:08.331Z,100974.67
2022-11-28T06:14:09.258Z,100975.02
2022-11-28T06:15:08.296Z,100975.82
2022-11-28T06:16:08.723Z,100976.51
2022-11-28T06:17:09.605Z,100977.45
2022-11-28T06:18:11.072Z,100977.86
2022-11-28T06:19:11.620Z,100977.88
2022-11-28T06:20:11.176Z,100978.91
2022-11-28T06:20:19.817Z,100991.12
2022-11-28T06:21:20.897Z,100990.37
2022-11-28T06:22:21.309Z,100990.29
2022-11-28T06:23:20.645Z,100990.13
2022-11-28T06:24:22.519Z,100989.86
2022-11-28T06:25:22.974Z,100989.53
2022-11-28T06:26:23.012Z,100989.70
2022-11-28T06:27:23.150Z,100989.20
2022-11-28T06:28:23.503Z,100988.70
2022-11-28T06:29:22.894Z,100987.72
2022-11-28T06:30:23.078Z,100987.55
2022-11-28T06:31:24.617Z,100988.39
2022-11-28T06:32:23.702Z,100988.55
2022-11-28T06:33:25.170Z,100988.72
2022-11-28T06:34:26.050Z,100989.05
2022-11-28T06:35:25.670Z,100989.48
2022-11-28T06:36:27.181Z,100989.53
2022-11-28T06:37:26.768Z,100989.12
2022-11-28T06:38:28.007Z,100988.45
2022-11-28T06:39:28.498Z,100987.86
2022-11-28T06:39:37.161Z,100984.95
2022-11-28T06:40:38.194Z,100984.38
2022-11-28T06:41:38.110Z,100984.12
2022-11-28T06:42:38.911Z,100983.45
2022-11-28T06:43:40.566Z,100983.13
2022-11-28T06:44:40.571Z,100983.28
2022-11-28T06:45:41.899Z,100983.45
2022-11-28T06:46:41.284Z,100983.13
2022-11-28T06:47:43.008Z,100982.70
2022-11-28T06:48:42.503Z,100983.28
2022-11-28T06:49:44.241Z,100983.53
2022-11-28T06:50:43.302Z,100983.64
2022-11-28T06:51:43.801Z,100983.75
2022-11-28T06:52:45.655Z,100983.82
2022-11-28T06:53:45.840Z,100983.67
2022-11-28T06:54:46.671Z,100983.86
2022-11-28T06:55:47.314Z,100983.57
2022-11-28T06:56:47.510Z,100983.09
2022-11-28T06:57:46.799Z,100983.16
2022-11-28T06:58:47.391Z,100983.52
2022-11-28T06:59:48.890Z,100983.23
2022-11-28T06:59:59.105Z,100988.48
2022-11-28T07:00:58.804Z,100987.90
2022-11-28T07:02:04.209Z,100987.47
2022-11-28T07:03:00.468Z,100987.47
2022-11-28T07:04:02.122Z,100987.14
2022-11-28T07:05:02.747Z,100987.14
2022-11-28T07:06:02.441Z,100986.22
2022-11-28T07:07:04.278Z,100985.64
2022-11-28T07:08:04.458Z,100985.20
2022-11-28T07:09:04.046Z,100985.04
2022-11-28T07:10:04.648Z,100984.59
2022-11-28T07:11:05.403Z,100984.27
2022-11-28T07:12:07.060Z,100984.66
2022-11-28T07:13:07.800Z,100984.22
2022-11-28T07:14:08.349Z,100983.90
2022-11-28T07:15:07.822Z,100983.20
2022-11-28T07:16:09.372Z,100982.91
2022-11-28T07:17:08.829Z,100982.13
2022-11-28T07:18:09.048Z,100981.89
2022-11-28T07:19:09.392Z,100981.27
2022-11-28T07:20:09.971Z,100981.12
2022-11-28T07:21:10.718Z,100981.02
2022-11-28T07:21:20.394Z,100974.25
2022-11-28T07:22:20.645Z,100973.75
2022-11-28T07:23:22.475Z,100972.99
2022-11-28T07:24:22.259Z,100972.66
2022-11-28T07:25:23.564Z,100972.48
2022-11-28T07:26:24.451Z,100971.77
2022-11-28T07:27:24.928Z,100971.59
2022-11-28T07:28:25.816Z,100971.16
2022-11-28T07:29:26.378Z,100970.91
2022-11-28T07:30:26.877Z,100971.42
2022-11-28T07:31:27.845Z,100971.22
2022-11-28T07:32:27.266Z,100970.81
2022-11-28T07:33:28.585Z,100970.11
2022-11-28T07:34:29.251Z,100969.12
2022-11-28T07:35:29.902Z,100968.34
2022-11-28T07:36:29.318Z,100967.06
2022-11-28T07:37:30.336Z,100966.05
2022-11-28T07:38:29.389Z,100965.27
2022-11-28T07:39:30.966Z,100964.36
2022-11-28T07:39:39.748Z,100959.19
2022-11-28T07:40:40.408Z,100958.69
2022-11-28T07:41:41.849Z,100958.19
2022-11-28T07:42:40.924Z,100957.94
2022-11-28T07:43:42.785Z,100957.94
2022-11-28T07:44:43.619Z,100958.00
2022-11-28T07:46:00.151Z,100957.58
2022-11-28T07:46:43.758Z,100957.50
2022-11-28T07:47:44.111Z,100957.75
2022-11-28T07:48:44.142Z,100957.98
2022-11-28T07:49:45.418Z,100957.56
2022-11-28T07:50:44.776Z,100957.15
2022-11-28T07:51:44.961Z,100957.45
2022-11-28T07:52:46.566Z,100957.80
2022-11-28T07:53:47.129Z,100958.11
2022-11-28T07:54:46.143Z,100958.95
2022-11-28T07:55:46.676Z,100959.17
2022-11-28T07:57:48.225Z,100960.66
2022-11-28T07:58:48.376Z,100961.77
2022-11-28T07:59:50.110Z,100962.23
2022-11-28T08:00:50.033Z,100963.14
2022-11-28T08:01:00.671Z,100982.02
2022-11-28T08:02:02.208Z,100981.59
2022-11-28T08:03:01.959Z,100981.34
2022-11-28T08:04:02.725Z,100980.42
2022-11-28T08:05:03.602Z,100979.48
2022-11-28T08:06:04.318Z,100979.81
2022-11-28T08:07:04.697Z,100979.41
2022-11-28T08:08:05.302Z,100978.71
2022-11-28T08:09:06.076Z,100978.77
2022-11-28T08:10:06.999Z,100978.27
2022-11-28T08:11:08.094Z,100977.75
2022-11-28T08:12:07.753Z,100977.65
2022-11-28T08:13:08.360Z,100977.97
2022-11-28T08:14:08.578Z,100977.61
2022-11-28T08:15:10.236Z,100977.48
2022-11-28T08:16:10.372Z,100977.39
2022-11-28T08:17:09.527Z,100976.92
2022-11-28T08:18:11.309Z,100976.80
2022-11-28T08:19:10.795Z,100976.34
2022-11-28T08:20:11.377Z,100975.97
2022-11-28T08:21:12.199Z,100975.34
2022-11-28T08:22:12.998Z,100975.13
2022-11-28T08:23:13.222Z,100974.75
2022-11-28T08:24:13.312Z,100973.71
2022-11-28T08:24:22.006Z,100966.23
2022-11-28T08:25:23.042Z,100965.48
2022-11-28T08:26:27.488Z,100964.81
2022-11-28T08:27:23.137Z,100964.14
2022-11-28T08:28:24.790Z,100963.38
2022-11-28T08:29:23.853Z,100962.71
2022-11-28T08:30:25.591Z,100961.95
2022-11-28T08:31:26.326Z,100961.06
2022-11-28T08:32:25.866Z,100961.06
2022-11-28T08:33:26.085Z,100960.95
2022-11-28T08:34:28.013Z,100960.20
2022-11-28T08:35:27.153Z,100959.88
2022-11-28T08:36:29.325Z,100959.84
2022-11-28T08:37:28.684Z,100959.73
2022-11-28T08:38:30.147Z,100959.63
2022-11-28T08:39:30.345Z,100959.22
2022-11-28T08:40:29.776Z,100959.19
2022-11-28T08:41:29.788Z,100959.23
2022-11-28T08:42:31.672Z,100958.28
2022-11-28T08:43:31.362Z,100957.84
2022-11-28T08:44:33.194Z,100957.41
2022-11-28T08:45:33.151Z,100957.10
2022-11-28T08:46:33.666Z,100956.66
2022-11-28T08:46:42.283Z,100944.98
2022-11-28T08:47:43.821Z,100944.64
2022-11-28T08:48:44.703Z,100944.31
2022-11-28T08:49:44.691Z,100943.97
2022-11-28T08:50:48.022Z,100944.22
2022-11-28T08:51:45.713Z,100944.14
2022-11-28T08:52:46.373Z,100944.14
2022-11-28T08:53:49.437Z,100943.92
2022-11-28T08:54:46.739Z,100944.31
2022-11-28T08:55:48.343Z,100944.22
2022-11-28T08:56:49.229Z,100943.81
2022-11-28T08:57:49.068Z,100943.61
2022-11-28T08:58:50.569Z,100943.62
2022-11-28T08:59:51.254Z,100943.59
2022-11-28T09:00:50.429Z,100942.84
2022-11-28T09:01:51.121Z,100942.48
2022-11-28T09:02:51.673Z,100942.31
2022-11-28T09:03:52.076Z,100941.45
2022-11-28T09:04:52.758Z,100940.78
2022-11-28T09:05:52.853Z,100940.53
2022-11-28T09:06:54.415Z,100940.34
2022-11-28T09:07:54.192Z,100939.13
2022-11-28T09:08:54.676Z,100939.05
2022-11-28T09:09:55.047Z,100938.11
2022-11-28T09:10:03.738Z,100936.92
2022-11-28T09:11:04.886Z,100936.03
2022-11-28T09:12:05.528Z,100935.92
2022-11-28T09:13:06.099Z,100935.50
2022-11-28T09:14:06.124Z,100935.09
2022-11-28T09:15:06.827Z,100934.34
2022-11-28T09:16:07.484Z,100933.72
2022-11-28T09:17:08.219Z,100933.89
2022-11-28T09:18:07.695Z,100934.03
2022-11-28T09:19:07.965Z,100933.95
2022-11-28T09:20:08.414Z,100934.00
2022-11-28T09:21:09.570Z,100933.92
2022-11-28T09:22:08.729Z,100933.59
2022-11-28T09:23:08.866Z,100933.84
2022-11-28T09:24:10.249Z,100934.56
2022-11-28T09:25:09.478Z,100934.98
2022-11-28T09:26:10.582Z,100935.33
2022-11-28T09:27:11.354Z,100935.83
2022-11-28T09:28:11.126Z,100936.41
2022-11-28T09:29:11.447Z,100936.19
2022-11-28T09:30:12.557Z,100936.95
2022-11-28T09:30:21.689Z,100942.92
2022-11-28T09:31:23.526Z,100942.53
2022-11-28T09:32:23.400Z,100943.03
2022-11-28T09:33:23.912Z,100942.87
2022-11-28T09:34:25.540Z,100942.87
2022-11-28T09:35:26.158Z,100943.09
2022-11-28T09:36:26.749Z,100942.84
2022-11-28T09:37:27.189Z,100943.14
2022-11-28T09:38:26.433Z,100943.31
2022-11-28T09:39:30.235Z,100943.04
2022-11-28T09:40:28.024Z,100943.27
2022-11-28T09:41:29.417Z,100943.36
2022-11-28T09:42:30.195Z,100942.72
2022-11-28T09:43:30.830Z,100942.86
2022-11-28T09:44:30.235Z,100942.58
2022-11-28T09:45:30.723Z,100943.23
2022-11-28T09:46:32.819Z,100943.29
2022-11-28T09:47:32.232Z,100943.43
2022-11-28T09:48:32.798Z,100943.66
2022-11-28T09:49:39.870Z,100943.39
2022-11-28T09:50:33.615Z,100943.75
2022-11-28T09:51:33.706Z,100943.90
2022-11-28T09:52:34.109Z,100944.97
2022-11-28T09:52:43.694Z,100957.45
2022-11-28T09:53:44.286Z,100956.36
2022-11-28T09:54:44.534Z,100955.77
2022-11-28T09:55:46.024Z,100955.69
2022-11-28T09:56:46.819Z,100954.90
2022-11-28T09:57:45.865Z,100954.31
2022-11-28T09:58:47.353Z,100954.28
2022-11-28T09:59:48.357Z,100954.46
2022-11-28T10:00:52.651Z,100953.93
2022-11-28T10:01:48.155Z,100954.69
2022-11-28T10:02:49.616Z,100953.91
2022-11-28T10:03:50.041Z,100954.16
2022-11-28T10:04:49.910Z,100954.38
2022-11-28T10:05:49.922Z,100954.38
2022-11-28T10:06:51.823Z,100954.27
2022-11-28T10:07:54.909Z,100954.52
2022-11-28T10:08:50.996Z,100954.70
2022-11-28T10:09:51.472Z,100954.70
2022-11-28T10:10:52.363Z,100954.02
2022-11-28T10:11:53.903Z,100953.52
2022-11-28T10:12:54.156Z,100953.02
2022-11-28T10:14:07.689Z,100952.69
2022-11-28T10:14:53.642Z,100952.26
2022-11-28T10:15:02.265Z,100948.98
2022-11-28T10:16:02.266Z,100948.31
2022-11-28T10:17:03.926Z,100947.81
2022-11-28T10:18:03.580Z,100947.86
2022-11-28T10:19:05.395Z,100947.70
2022-11-28T10:20:04.849Z,100947.86
2022-11-28T10:21:05.498Z,100947.84
2022-11-28T10:22:06.950Z,100948.02
2022-11-28T10:23:07.379Z,100948.31
2022-11-28T10:24:06.573Z,100948.06
2022-11-28T10:25:07.933Z,100948.23
2022-11-28T10:26:08.671Z,100948.38
2022-11-28T10:27:09.320Z,100948.87
2022-11-28T10:28:08.431Z,100949.02
2022-11-28T10:29:10.183Z,100949.19
2022-11-28T10:30:09.660Z,100949.33
2022-11-28T10:31:10.712Z,100949.72
2022-11-28T10:32:11.557Z,100950.31
2022-11-28T10:33:12.828Z,100951.16
2022-11-28T10:34:12.646Z,100951.83
2022-11-28T10:35:14.037Z,100952.30
2022-11-28T10:36:14.219Z,100952.95
2022-11-28T10:36:22.859Z,100956.25
2022-11-28T10:37:24.725Z,100955.92
2022-11-28T10:38:25.665Z,100956.17
2022-11-28T10:39:24.812Z,100955.75
2022-11-28T10:40:26.337Z,100956.25
2022-11-28T10:41:25.823Z,100956.67
2022-11-28T10:42:27.144Z,100956.59
2022-11-28T10:43:27.550Z,100957.06
2022-11-28T10:44:27.525Z,100957.38
2022-11-28T10:45:28.563Z,100958.22
2022-11-28T10:46:29.130Z,100958.94
2022-11-28T10:47:28.702Z,100959.84
2022-11-28T10:48:39.512Z,100960.43
2022-11-28T10:49:29.709Z,100960.66
2022-11-28T10:50:32.509Z,100961.47
2022-11-28T10:51:30.531Z,100962.45
2022-11-28T10:52:31.340Z,100963.27
2022-11-28T10:53:32.207Z,100964.47
2022-11-28T10:54:32.742Z,100964.94
2022-11-28T10:55:33.545Z,100965.84
2022-11-28T10:56:35.543Z,100966.38
2022-11-28T10:56:44.225Z,100975.06
2022-11-28T10:57:44.639Z,100974.47
2022-11-28T10:58:46.338Z,100973.97
2022-11-28T10:59:45.834Z,100973.72
2022-11-28T11:00:46.326Z,100973.21
2022-11-28T11:01:50.188Z,100972.87
2022-11-28T11:02:46.965Z,100973.13
2022-11-28T11:03:47.701Z,100972.63
2022-11-28T11:04:49.427Z,100972.68